Time;durP1;ratioP1;P1;durP2;ratioP2;P2;SDS_P1;SDS_P2;PMS_P1;PMS_P2;Temp;Humidity;BMP_temperature;BMP_pressure;BME280_temperature;BME280_humidity;BME280_pressure;Samples;Min_cycle;Max_cycle;Signal;HPM_P1;HPM_P2
2022/12/25 00:01:36;;;;;;;;;;;4.00;99.90;;;;;;5015207;28;20366;-68
2022/12/25 00:04:02;;;;;;;;;;;4.00;99.90;;;;;;5014784;28;19914;-68
2022/12/25 00:06:27;;;;;;;;;;;4.00;99.90;;;;;;5014550;28;19917;-68
2022/12/25 00:08:53;;;;;;;;;;;4.00;99.90;;;;;;5014707;28;19914;-69
2022/12/25 00:11:19;;;;;;;;;;;4.00;99.90;;;;;;5014488;28;19914;-68
2022/12/25 00:13:45;;;;;;;;;;;4.00;99.90;;;;;;5014897;28;19914;-69
2022/12/25 00:16:20;;;;;;;;;;;4.00;99.90;;;;;;5014655;28;20289;-69
2022/12/25 00:18:46;;;;;;;;;;;4.00;99.90;;;;;;5014935;28;19910;-69
2022/12/25 00:21:13;;;;;;;;;;;4.00;99.90;;;;;;5014841;28;19910;-69
2022/12/25 00:23:38;;;;;;;;;;;4.00;99.90;;;;;;5014556;28;19910;-68
2022/12/25 00:26:09;;;;;;;;;;;4.00;99.90;;;;;;5014356;28;19950;-68
2022/12/25 00:28:35;;;;;;;;;;;4.00;99.90;;;;;;5014446;28;19909;-68
2022/12/25 00:31:11;;;;;;;;;;;4.00;99.90;;;;;;5014651;28;19940;-68
2022/12/25 00:33:37;;;;;;;;;;;4.00;99.90;;;;;;5013186;28;20366;-69
2022/12/25 00:36:07;;;;;;;;;;;4.00;99.90;;;;;;5014078;28;19937;-70
2022/12/25 00:38:34;;;;;;;;;;;4.00;99.90;;;;;;5012925;28;19916;-68
2022/12/25 00:41:03;;;;;;;;;;;4.00;99.90;;;;;;5014293;28;19917;-68
2022/12/25 00:43:29;;;;;;;;;;;4.00;99.90;;;;;;5014186;28;20385;-68
2022/12/25 00:45:58;;;;;;;;;;;4.00;99.90;;;;;;5014784;28;19944;-68
2022/12/25 00:48:24;;;;;;;;;;;4.00;99.90;;;;;;5014194;28;19933;-68
2022/12/25 00:50:53;;;;;;;;;;;4.00;99.90;;;;;;5014402;28;19921;-68
2022/12/25 00:53:18;;;;;;;;;;;4.00;99.90;;;;;;5014009;28;19920;-68
2022/12/25 00:55:49;;;;;;;;;;;4.00;99.90;;;;;;5014090;28;19914;-68
2022/12/25 00:58:14;;;;;;;;;;;4.00;99.90;;;;;;5014375;28;19909;-68
2022/12/25 01:00:40;;;;;;;;;;;4.00;99.90;;;;;;5014055;28;19964;-68
2022/12/25 01:03:05;;;;;;;;;;;4.00;99.90;;;;;;5014179;28;19913;-68
2022/12/25 01:05:31;;;;;;;;;;;4.00;99.90;;;;;;5014017;28;20004;-68
2022/12/25 01:07:56;;;;;;;;;;;3.90;99.90;;;;;;5013577;28;19929;-68
2022/12/25 01:10:22;;;;;;;;;;;3.90;99.90;;;;;;5014218;28;19917;-68
2022/12/25 01:12:47;;;;;;;;;;;3.90;99.90;;;;;;5013843;28;19963;-68
2022/12/25 01:15:13;;;;;;;;;;;3.90;99.90;;;;;;5013921;28;20020;-68
2022/12/25 01:17:40;;;;;;;;;;;3.90;99.90;;;;;;5014299;28;19913;-68
2022/12/25 01:20:05;;;;;;;;;;;3.90;99.90;;;;;;5017934;28;20270;-68
2022/12/25 01:22:31;;;;;;;;;;;3.90;99.90;;;;;;5017547;28;19910;-69
2022/12/25 01:24:57;;;;;;;;;;;3.90;99.90;;;;;;5017751;28;19918;-68
2022/12/25 01:27:22;;;;;;;;;;;3.90;99.90;;;;;;5017772;28;19914;-68
2022/12/25 01:29:48;;;;;;;;;;;3.90;99.90;;;;;;5017658;28;19980;-68
2022/12/25 01:32:13;;;;;;;;;;;3.90;99.90;;;;;;5017664;28;19920;-68
2022/12/25 01:34:39;;;;;;;;;;;3.90;99.90;;;;;;5016308;28;19953;-68
2022/12/25 01:37:05;;;;;;;;;;;3.90;99.90;;;;;;5017878;28;19913;-70
2022/12/25 01:39:31;;;;;;;;;;;3.90;99.90;;;;;;5017180;28;19921;-70
2022/12/25 01:41:57;;;;;;;;;;;3.90;99.90;;;;;;5017517;28;20277;-70
2022/12/25 01:44:34;;;;;;;;;;;3.90;99.90;;;;;;5017417;28;20296;-70
2022/12/25 01:47:01;;;;;;;;;;;3.90;99.90;;;;;;5017403;28;20388;-70
2022/12/25 01:49:27;;;;;;;;;;;3.90;99.90;;;;;;5017557;28;20322;-70
2022/12/25 01:51:58;;;;;;;;;;;3.90;99.90;;;;;;5016061;28;19971;-70
2022/12/25 01:54:28;;;;;;;;;;;3.90;99.90;;;;;;5016986;28;19916;-70
2022/12/25 01:56:55;;;;;;;;;;;3.90;99.90;;;;;;5017471;28;19915;-70
2022/12/25 01:59:22;;;;;;;;;;;3.90;99.90;;;;;;5017727;28;19952;-70
2022/12/25 02:01:47;;;;;;;;;;;3.80;99.90;;;;;;5017118;28;19948;-70
2022/12/25 02:04:37;;;;;;;;;;;3.80;99.90;;;;;;5017043;28;20326;-70
2022/12/25 02:07:07;;;;;;;;;;;3.80;99.90;;;;;;5017091;28;20004;-70
2022/12/25 02:09:32;;;;;;;;;;;3.80;99.90;;;;;;5016575;28;19973;-70
2022/12/25 02:11:58;;;;;;;;;;;3.80;99.90;;;;;;5016995;28;19925;-70
2022/12/25 02:14:26;;;;;;;;;;;3.80;99.90;;;;;;5016900;28;19914;-70
2022/12/25 02:16:54;;;;;;;;;;;3.80;99.90;;;;;;5016825;28;20001;-70
2022/12/25 02:19:30;;;;;;;;;;;3.80;99.90;;;;;;5016781;28;19913;-70
2022/12/25 02:21:55;;;;;;;;;;;3.80;99.90;;;;;;5016536;28;19913;-70
2022/12/25 02:24:24;;;;;;;;;;;3.80;99.90;;;;;;5016430;28;20007;-70
2022/12/25 02:26:57;;;;;;;;;;;3.70;99.90;;;;;;5016662;28;19914;-70
2022/12/25 02:29:47;;;;;;;;;;;3.70;99.90;;;;;;5016407;28;19937;-70
2022/12/25 02:32:15;;;;;;;;;;;3.80;99.90;;;;;;5016606;28;19963;-70
2022/12/25 02:34:46;;;;;;;;;;;3.80;99.90;;;;;;5016563;28;19997;-70
2022/12/25 02:37:13;;;;;;;;;;;3.80;99.90;;;;;;5016838;28;19909;-70
2022/12/25 02:39:57;;;;;;;;;;;3.80;99.90;;;;;;5016392;28;19910;-70
2022/12/25 02:42:22;;;;;;;;;;;3.80;99.90;;;;;;5015147;28;19960;-70
2022/12/25 03:07:22;;;;;;;;;;;3.60;99.90;;;;;;5025017;22;20293;-81
2022/12/25 03:12:52;;;;;;;;;;;3.70;99.90;;;;;;5015609;28;20004;-81
2022/12/25 03:18:06;;;;;;;;;;;3.70;99.90;;;;;;5020295;28;20323;-80
2022/12/25 03:28:46;;;;;;;;;;;3.50;99.90;;;;;;5015901;28;19925;-82
2022/12/25 03:31:20;;;;;;;;;;;3.50;99.90;;;;;;5016280;28;19917;-82
2022/12/25 03:37:10;;;;;;;;;;;3.50;99.90;;;;;;5017480;28;19916;-82
2022/12/25 04:37:20;;;;;;;;;;;3.50;99.90;;;;;;5015363;28;19992;-82
2022/12/25 04:39:45;;;;;;;;;;;3.50;99.90;;;;;;5010291;28;20016;-82
2022/12/25 04:42:11;;;;;;;;;;;3.50;99.90;;;;;;5027097;28;19921;-82
2022/12/25 04:44:37;;;;;;;;;;;3.50;99.90;;;;;;4998182;28;20346;-82
2022/12/25 04:47:02;;;;;;;;;;;3.50;99.90;;;;;;5014760;28;19921;-82
2022/12/25 04:49:28;;;;;;;;;;;3.50;99.90;;;;;;5013914;28;19924;-82
2022/12/25 04:51:53;;;;;;;;;;;3.50;99.90;;;;;;5013893;28;20447;-82
2022/12/25 04:54:19;;;;;;;;;;;3.50;99.90;;;;;;5014580;28;19913;-82
2022/12/25 04:56:44;;;;;;;;;;;3.50;99.90;;;;;;5012904;28;19960;-83
2022/12/25 04:59:10;;;;;;;;;;;3.40;99.90;;;;;;4994907;28;19914;-82
2022/12/25 05:01:35;;;;;;;;;;;3.40;99.90;;;;;;5014653;28;20361;-81
2022/12/25 05:04:01;;;;;;;;;;;3.40;99.90;;;;;;5013555;28;19913;-82
2022/12/25 05:06:26;;;;;;;;;;;3.30;99.90;;;;;;5014943;28;20266;-82
2022/12/25 05:08:52;;;;;;;;;;;3.30;99.90;;;;;;5014685;28;19921;-82
2022/12/25 05:11:18;;;;;;;;;;;3.30;99.90;;;;;;5014728;28;19920;-82
2022/12/25 05:13:43;;;;;;;;;;;3.30;99.90;;;;;;5015178;28;19918;-82
2022/12/25 05:16:13;;;;;;;;;;;3.20;99.90;;;;;;5044643;28;19951;-81
2022/12/25 05:18:39;;;;;;;;;;;3.20;99.90;;;;;;5011827;28;20254;-81
2022/12/25 05:21:04;;;;;;;;;;;3.20;99.90;;;;;;5014344;28;19921;-81
2022/12/25 05:23:30;;;;;;;;;;;3.20;99.90;;;;;;5019515;28;19925;-82
2022/12/25 05:25:56;;;;;;;;;;;3.20;99.90;;;;;;5014396;28;19913;-82
2022/12/25 05:28:22;;;;;;;;;;;3.20;99.90;;;;;;5012147;28;19917;-82
2022/12/25 05:30:47;;;;;;;;;;;3.20;99.90;;;;;;4996686;28;20007;-82
2022/12/25 05:33:13;;;;;;;;;;;3.10;99.90;;;;;;5018701;28;20270;-82
2022/12/25 05:35:39;;;;;;;;;;;3.10;99.90;;;;;;5014731;28;19916;-82
2022/12/25 05:38:04;;;;;;;;;;;3.00;99.90;;;;;;5013379;28;20317;-82
2022/12/25 05:40:30;;;;;;;;;;;3.00;99.90;;;;;;5014368;28;19918;-82
2022/12/25 05:42:56;;;;;;;;;;;3.10;99.90;;;;;;5046156;28;19983;-82
2022/12/25 05:45:21;;;;;;;;;;;3.00;99.90;;;;;;5014368;28;19921;-82
2022/12/25 05:47:47;;;;;;;;;;;3.00;99.90;;;;;;5013238;28;20385;-82
2022/12/25 05:50:12;;;;;;;;;;;2.90;99.90;;;;;;5014684;28;20293;-82
2022/12/25 05:52:38;;;;;;;;;;;2.90;99.90;;;;;;5026294;28;20288;-81
2022/12/25 05:55:04;;;;;;;;;;;2.90;99.90;;;;;;5016597;28;20280;-81
2022/12/25 05:57:30;;;;;;;;;;;2.90;99.90;;;;;;5034574;28;19913;-82
2022/12/25 05:59:56;;;;;;;;;;;2.90;99.90;;;;;;5033160;28;19909;-82
2022/12/25 06:02:21;;;;;;;;;;;2.90;99.90;;;;;;5025111;28;19921;-81
2022/12/25 06:04:47;;;;;;;;;;;2.90;99.90;;;;;;5015245;28;19935;-81
2022/12/25 06:07:12;;;;;;;;;;;2.90;99.90;;;;;;5016913;28;20263;-82
2022/12/25 06:09:38;;;;;;;;;;;2.90;99.90;;;;;;5013491;28;19941;-82
2022/12/25 06:12:03;;;;;;;;;;;2.80;99.90;;;;;;5013726;28;19921;-81
2022/12/25 06:14:29;;;;;;;;;;;2.80;99.90;;;;;;5037487;28;19913;-79
2022/12/25 06:16:55;;;;;;;;;;;2.80;99.90;;;;;;5020871;28;20425;-81
2022/12/25 06:19:20;;;;;;;;;;;2.80;99.90;;;;;;5024347;28;19909;-80
2022/12/25 06:21:46;;;;;;;;;;;2.80;99.90;;;;;;5028727;28;19921;-81
2022/12/25 06:24:12;;;;;;;;;;;2.80;99.90;;;;;;5043840;28;20250;-80
2022/12/25 06:26:38;;;;;;;;;;;2.80;99.90;;;;;;5042142;28;19913;-81
2022/12/25 06:29:03;;;;;;;;;;;2.80;99.90;;;;;;5043723;28;19909;-81
2022/12/25 06:31:29;;;;;;;;;;;2.80;99.90;;;;;;5040786;28;20331;-81
2022/12/25 06:33:54;;;;;;;;;;;2.80;99.90;;;;;;5018585;28;19911;-81
2022/12/25 06:36:21;;;;;;;;;;;2.80;99.90;;;;;;5019819;28;20024;-80
2022/12/25 06:38:47;;;;;;;;;;;2.80;99.90;;;;;;5015481;28;19933;-81
2022/12/25 06:41:14;;;;;;;;;;;2.80;99.90;;;;;;5032967;28;19909;-80
2022/12/25 06:43:39;;;;;;;;;;;2.80;99.90;;;;;;5040440;28;20009;-80
2022/12/25 06:46:07;;;;;;;;;;;2.70;99.90;;;;;;5025401;28;19944;-80
2022/12/25 06:48:33;;;;;;;;;;;2.70;99.90;;;;;;5020146;28;19909;-80
2022/12/25 06:50:59;;;;;;;;;;;2.70;99.90;;;;;;5020277;28;19921;-80
2022/12/25 06:53:24;;;;;;;;;;;2.70;99.90;;;;;;5035625;28;19917;-80
2022/12/25 06:55:50;;;;;;;;;;;2.70;99.90;;;;;;5038036;28;20385;-80
2022/12/25 06:58:16;;;;;;;;;;;2.70;99.90;;;;;;5038211;28;20004;-80
2022/12/25 07:00:41;;;;;;;;;;;2.70;99.90;;;;;;5037599;28;19953;-81
2022/12/25 07:03:07;;;;;;;;;;;2.70;99.90;;;;;;5036764;28;19914;-80
2022/12/25 07:05:32;;;;;;;;;;;2.70;99.90;;;;;;5036501;28;19938;-80
2022/12/25 07:07:58;;;;;;;;;;;2.70;99.90;;;;;;5030925;28;19929;-81
2022/12/25 07:10:23;;;;;;;;;;;2.70;99.90;;;;;;5017035;28;19921;-80
2022/12/25 07:12:49;;;;;;;;;;;2.70;99.90;;;;;;5016040;28;20004;-80
2022/12/25 07:15:14;;;;;;;;;;;2.70;99.90;;;;;;5015489;28;19913;-80
2022/12/25 07:17:40;;;;;;;;;;;2.70;99.90;;;;;;5016198;28;19964;-80
2022/12/25 07:20:06;;;;;;;;;;;2.60;99.90;;;;;;5014677;28;20004;-82
2022/12/25 07:22:31;;;;;;;;;;;2.60;99.90;;;;;;5016838;28;19918;-82
2022/12/25 07:24:57;;;;;;;;;;;2.50;99.90;;;;;;5015171;28;20285;-81
2022/12/25 07:27:23;;;;;;;;;;;2.50;99.90;;;;;;5014384;28;19920;-81
2022/12/25 07:29:48;;;;;;;;;;;2.50;99.90;;;;;;5015907;28;20528;-81
2022/12/25 07:32:14;;;;;;;;;;;2.40;99.90;;;;;;5019292;28;19921;-81
2022/12/25 07:34:39;;;;;;;;;;;2.40;99.90;;;;;;5015026;28;19928;-81
2022/12/25 07:37:05;;;;;;;;;;;2.30;99.90;;;;;;5016338;28;19948;-80
2022/12/25 07:39:30;;;;;;;;;;;2.30;99.90;;;;;;5015020;28;19976;-81
2022/12/25 07:41:56;;;;;;;;;;;2.30;99.90;;;;;;5018026;28;19920;-81
2022/12/25 07:44:21;;;;;;;;;;;2.30;99.90;;;;;;5036287;28;19909;-81
2022/12/25 07:46:47;;;;;;;;;;;2.40;99.90;;;;;;5015358;28;19913;-82
2022/12/25 07:49:13;;;;;;;;;;;2.50;99.90;;;;;;5016334;28;19913;-82
2022/12/25 07:51:38;;;;;;;;;;;2.50;99.90;;;;;;5017630;28;20368;-81
2022/12/25 07:54:04;;;;;;;;;;;2.50;99.90;;;;;;5036212;28;19963;-81
2022/12/25 07:56:29;;;;;;;;;;;2.50;99.90;;;;;;5034879;28;19921;-81
2022/12/25 07:58:55;;;;;;;;;;;2.60;99.90;;;;;;5017907;28;20008;-81
2022/12/25 08:01:22;;;;;;;;;;;2.70;99.90;;;;;;5035973;28;19920;-81
2022/12/25 08:03:52;;;;;;;;;;;2.70;99.90;;;;;;5014274;28;19945;-80
2022/12/25 08:06:18;;;;;;;;;;;2.70;99.90;;;;;;5014006;28;20027;-81
2022/12/25 08:08:44;;;;;;;;;;;2.80;99.90;;;;;;5012737;28;20024;-80
2022/12/25 08:11:09;;;;;;;;;;;2.80;99.90;;;;;;5014238;28;19933;-81
2022/12/25 08:13:35;;;;;;;;;;;2.70;99.90;;;;;;5015702;28;19922;-81
2022/12/25 08:16:02;;;;;;;;;;;2.70;99.90;;;;;;5014143;28;19949;-80
2022/12/25 08:18:29;;;;;;;;;;;2.70;99.90;;;;;;5013292;28;19909;-81
2022/12/25 08:20:54;;;;;;;;;;;2.80;99.90;;;;;;5015522;28;19956;-81
2022/12/25 08:23:20;;;;;;;;;;;2.80;99.90;;;;;;5016252;28;19960;-82
2022/12/25 08:25:46;;;;;;;;;;;2.80;99.90;;;;;;5015300;28;20357;-81
2022/12/25 08:28:11;;;;;;;;;;;2.80;99.90;;;;;;5010020;28;20273;-81
2022/12/25 08:30:40;;;;;;;;;;;2.80;99.90;;;;;;5012108;28;19917;-82
2022/12/25 08:33:06;;;;;;;;;;;2.80;99.90;;;;;;5011974;28;19961;-81
2022/12/25 08:35:34;;;;;;;;;;;2.80;99.90;;;;;;5022009;28;19972;-81
2022/12/25 08:38:00;;;;;;;;;;;2.80;99.90;;;;;;5029324;28;19909;-81
2022/12/25 08:40:26;;;;;;;;;;;2.80;99.90;;;;;;5010423;28;19910;-81
2022/12/25 08:42:51;;;;;;;;;;;2.80;99.90;;;;;;5014492;28;20296;-81
2022/12/25 08:45:17;;;;;;;;;;;2.90;99.90;;;;;;5026973;28;19913;-81
2022/12/25 08:47:42;;;;;;;;;;;3.00;99.90;;;;;;5015112;28;19914;-81
2022/12/25 08:50:08;;;;;;;;;;;3.00;99.90;;;;;;5013838;28;19917;-81
2022/12/25 08:52:34;;;;;;;;;;;3.10;99.90;;;;;;5020636;28;19928;-81
2022/12/25 08:54:59;;;;;;;;;;;3.10;99.90;;;;;;5034556;28;19932;-81
2022/12/25 08:57:25;;;;;;;;;;;3.10;99.90;;;;;;5033483;28;20269;-82
2022/12/25 08:59:50;;;;;;;;;;;3.20;99.90;;;;;;5034101;28;20250;-81
2022/12/25 09:02:16;;;;;;;;;;;3.20;99.90;;;;;;5030223;28;19964;-81
2022/12/25 09:04:43;;;;;;;;;;;3.30;99.90;;;;;;5011333;28;19925;-81
2022/12/25 09:07:09;;;;;;;;;;;3.40;99.90;;;;;;5011727;28;19929;-81
2022/12/25 09:09:35;;;;;;;;;;;3.50;99.90;;;;;;5011614;28;19924;-81
2022/12/25 09:12:01;;;;;;;;;;;3.50;99.90;;;;;;5015188;28;19909;-81
2022/12/25 09:14:27;;;;;;;;;;;3.60;99.90;;;;;;5012717;28;19983;-82
2022/12/25 09:16:53;;;;;;;;;;;3.70;99.90;;;;;;5015126;28;19913;-81
2022/12/25 09:19:18;;;;;;;;;;;3.70;99.90;;;;;;5014576;28;19914;-81
2022/12/25 09:21:44;;;;;;;;;;;3.80;99.90;;;;;;5010656;28;19963;-82
2022/12/25 09:24:10;;;;;;;;;;;3.90;99.90;;;;;;5011520;28;20063;-81
2022/12/25 09:26:35;;;;;;;;;;;3.90;99.90;;;;;;5013626;28;19917;-81
2022/12/25 09:29:01;;;;;;;;;;;4.00;99.90;;;;;;5013609;28;19924;-81
2022/12/25 09:31:27;;;;;;;;;;;4.10;99.90;;;;;;5013680;28;19975;-81
2022/12/25 09:33:54;;;;;;;;;;;4.10;99.90;;;;;;5011704;28;19980;-81
2022/12/25 09:36:22;;;;;;;;;;;4.20;99.90;;;;;;5012370;28;19991;-81
2022/12/25 09:38:47;;;;;;;;;;;4.30;99.90;;;;;;5019394;28;19918;-82
2022/12/25 09:41:31;;;;;;;;;;;4.40;99.90;;;;;;5016576;28;19972;-81
2022/12/25 09:44:00;;;;;;;;;;;4.50;99.90;;;;;;5017463;28;19921;-82
2022/12/25 09:46:26;;;;;;;;;;;4.60;99.90;;;;;;5014410;28;19913;-81
2022/12/25 09:49:12;;;;;;;;;;;4.70;99.90;;;;;;5015249;28;19909;-82
2022/12/25 09:51:39;;;;;;;;;;;4.80;99.90;;;;;;5016095;28;20328;-82
2022/12/25 09:54:17;;;;;;;;;;;4.80;99.90;;;;;;5015698;28;20009;-82
2022/12/25 09:56:42;;;;;;;;;;;4.90;99.90;;;;;;5031181;28;19921;-82
2022/12/25 09:59:16;;;;;;;;;;;5.00;99.90;;;;;;5016154;28;19918;-82
2022/12/25 10:01:56;;;;;;;;;;;5.10;99.90;;;;;;5017239;28;19914;-82
2022/12/25 10:04:40;;;;;;;;;;;5.20;99.90;;;;;;5017692;28;19909;-82
2022/12/25 10:07:29;;;;;;;;;;;5.20;99.90;;;;;;5015879;28;19924;-82
2022/12/25 10:09:57;;;;;;;;;;;5.30;99.90;;;;;;5005087;28;19925;-81
2022/12/25 10:12:25;;;;;;;;;;;5.40;99.90;;;;;;5017070;28;19916;-81
2022/12/25 10:15:09;;;;;;;;;;;5.50;99.90;;;;;;5014535;28;19964;-82
2022/12/25 10:17:41;;;;;;;;;;;5.60;99.90;;;;;;5015792;28;19909;-81
2022/12/25 10:20:07;;;;;;;;;;;5.70;99.90;;;;;;5016945;28;19960;-82
2022/12/25 10:22:34;;;;;;;;;;;5.80;99.90;;;;;;5017062;28;19913;-82
2022/12/25 10:25:01;;;;;;;;;;;5.90;99.90;;;;;;5014902;28;19956;-81
2022/12/25 10:27:31;;;;;;;;;;;5.90;99.90;;;;;;5012276;28;20004;-82
2022/12/25 10:29:57;;;;;;;;;;;6.00;99.90;;;;;;5011153;28;19920;-82
2022/12/25 10:32:23;;;;;;;;;;;6.10;99.90;;;;;;5013470;28;19964;-82
2022/12/25 10:34:48;;;;;;;;;;;6.20;99.90;;;;;;5015292;28;19961;-82
2022/12/25 10:37:14;;;;;;;;;;;6.20;99.90;;;;;;5015275;28;19963;-82
2022/12/25 10:39:41;;;;;;;;;;;6.30;99.90;;;;;;5016264;28;20373;-82
2022/12/25 10:42:09;;;;;;;;;;;6.30;99.90;;;;;;5016218;28;19931;-82
2022/12/25 10:44:35;;;;;;;;;;;6.40;99.90;;;;;;5016418;28;19913;-82
2022/12/25 10:47:01;;;;;;;;;;;6.40;99.90;;;;;;5015584;28;20287;-82
2022/12/25 10:49:37;;;;;;;;;;;6.50;99.90;;;;;;5016080;28;20381;-82
2022/12/25 10:52:14;;;;;;;;;;;6.60;99.90;;;;;;5014018;28;19917;-82
2022/12/25 10:54:40;;;;;;;;;;;6.70;99.90;;;;;;5013438;28;19939;-83
2022/12/25 10:57:08;;;;;;;;;;;6.70;99.90;;;;;;5015017;28;19920;-80
2022/12/25 10:59:40;;;;;;;;;;;6.80;99.90;;;;;;5013869;28;19956;-81
2022/12/25 11:02:22;;;;;;;;;;;6.80;99.90;;;;;;5014622;28;19960;-82
2022/12/25 11:04:48;;;;;;;;;;;6.90;99.90;;;;;;5014845;28;20424;-82
2022/12/25 11:07:20;;;;;;;;;;;7.00;99.90;;;;;;5011967;28;19921;-81
2022/12/25 11:09:53;;;;;;;;;;;7.00;99.90;;;;;;5013367;28;19920;-81
2022/12/25 11:12:19;;;;;;;;;;;7.10;99.90;;;;;;5015552;28;19913;-82
2022/12/25 11:14:52;;;;;;;;;;;7.10;99.90;;;;;;5015302;28;19913;-82
2022/12/25 11:17:20;;;;;;;;;;;7.20;99.90;;;;;;5012459;28;20404;-82
2022/12/25 11:19:50;;;;;;;;;;;7.20;99.90;;;;;;5014119;28;19917;-82
2022/12/25 11:22:17;;;;;;;;;;;7.30;99.90;;;;;;5014755;28;20084;-82
2022/12/25 11:24:43;;;;;;;;;;;7.30;99.90;;;;;;5014485;28;19937;-82
2022/12/25 11:27:19;;;;;;;;;;;7.30;99.90;;;;;;5015000;28;19975;-82
2022/12/25 11:30:04;;;;;;;;;;;7.30;99.90;;;;;;5014205;28;19987;-83
2022/12/25 11:32:33;;;;;;;;;;;7.40;99.90;;;;;;5015358;28;19996;-83
2022/12/25 11:35:00;;;;;;;;;;;7.50;99.90;;;;;;5015966;28;19916;-83
2022/12/25 11:37:26;;;;;;;;;;;7.50;99.90;;;;;;5015163;28;19914;-83
2022/12/25 11:39:51;;;;;;;;;;;7.50;99.90;;;;;;5013080;28;19921;-83
2022/12/25 11:42:22;;;;;;;;;;;7.50;99.90;;;;;;5012685;28;19909;-83
2022/12/25 11:44:50;;;;;;;;;;;7.60;99.90;;;;;;5013848;28;19920;-83
2022/12/25 11:47:22;;;;;;;;;;;7.60;99.90;;;;;;5015555;28;19918;-82
2022/12/25 11:49:55;;;;;;;;;;;7.70;99.90;;;;;;5014324;28;19913;-82
2022/12/25 11:52:22;;;;;;;;;;;7.70;99.90;;;;;;5015461;28;19963;-82
2022/12/25 11:54:54;;;;;;;;;;;7.80;99.90;;;;;;5014634;28;19913;-82
2022/12/25 11:57:20;;;;;;;;;;;7.80;99.90;;;;;;5013618;28;20358;-82
2022/12/25 11:59:52;;;;;;;;;;;7.80;99.90;;;;;;5014731;28;19921;-82
2022/12/25 12:02:17;;;;;;;;;;;7.90;99.90;;;;;;5013006;28;19921;-82
2022/12/25 12:04:46;;;;;;;;;;;7.90;99.90;;;;;;5013807;28;19916;-82
2022/12/25 12:07:20;;;;;;;;;;;7.90;99.90;;;;;;5014639;28;19922;-82
2022/12/25 12:10:07;;;;;;;;;;;7.90;99.90;;;;;;5010283;28;20262;-82
2022/12/25 12:12:45;;;;;;;;;;;7.90;99.90;;;;;;5013051;28;19914;-82
2022/12/25 12:15:20;;;;;;;;;;;7.90;99.90;;;;;;5011989;28;20319;-82
2022/12/25 12:17:46;;;;;;;;;;;8.00;99.90;;;;;;5013980;28;19910;-82
2022/12/25 12:20:30;;;;;;;;;;;8.00;99.90;;;;;;5013967;28;20458;-82
2022/12/25 12:22:56;;;;;;;;;;;8.00;99.90;;;;;;5015310;28;20297;-82
2022/12/25 12:25:22;;;;;;;;;;;8.10;99.90;;;;;;5013472;28;20350;-82
2022/12/25 12:27:58;;;;;;;;;;;8.10;99.90;;;;;;5014100;28;20002;-82
2022/12/25 12:30:23;;;;;;;;;;;8.10;99.90;;;;;;5010745;28;19921;-82
2022/12/25 12:32:51;;;;;;;;;;;8.10;99.90;;;;;;5016775;28;19924;-82
2022/12/25 12:35:17;;;;;;;;;;;8.10;99.90;;;;;;5014491;28;20353;-82
2022/12/25 12:37:43;;;;;;;;;;;8.00;99.90;;;;;;5012793;28;19920;-82
2022/12/25 12:40:24;;;;;;;;;;;8.00;99.90;;;;;;5013472;28;19983;-82
2022/12/25 12:42:51;;;;;;;;;;;8.10;99.90;;;;;;5008400;28;19913;-82
2022/12/25 12:45:16;;;;;;;;;;;8.00;99.90;;;;;;5011972;28;19921;-82
2022/12/25 12:47:45;;;;;;;;;;;8.00;99.90;;;;;;5013845;28;19913;-82
2022/12/25 12:50:29;;;;;;;;;;;8.10;99.90;;;;;;5011723;28;20388;-82
2022/12/25 12:52:55;;;;;;;;;;;8.10;99.90;;;;;;5013262;28;19921;-83
2022/12/25 12:55:33;;;;;;;;;;;8.10;99.90;;;;;;5012558;28;19913;-82
2022/12/25 12:58:19;;;;;;;;;;;8.10;99.90;;;;;;5011206;28;19913;-82
2022/12/25 13:00:51;;;;;;;;;;;8.00;99.90;;;;;;5009329;28;19924;-82
2022/12/25 13:03:32;;;;;;;;;;;8.10;99.90;;;;;;5012426;28;19913;-82
2022/12/25 13:06:21;;;;;;;;;;;8.10;99.90;;;;;;5008805;28;20048;-83
2022/12/25 13:08:46;;;;;;;;;;;8.10;99.90;;;;;;5036814;28;19998;-83
2022/12/25 13:11:26;;;;;;;;;;;8.10;99.90;;;;;;5012591;28;19964;-83
2022/12/25 13:13:53;;;;;;;;;;;8.20;99.90;;;;;;5015258;28;19920;-84
2022/12/25 13:16:30;;;;;;;;;;;8.20;99.90;;;;;;5017430;28;20386;-83
2022/12/25 13:18:56;;;;;;;;;;;8.20;99.90;;;;;;5018741;28;19910;-82
2022/12/25 13:21:26;;;;;;;;;;;8.20;99.90;;;;;;5019038;28;19932;-82
2022/12/25 13:24:09;;;;;;;;;;;8.20;99.90;;;;;;5018784;28;19909;-82
2022/12/25 13:26:35;;;;;;;;;;;8.20;99.90;;;;;;5049887;28;19913;-82
2022/12/25 13:29:01;;;;;;;;;;;8.20;99.90;;;;;;5033589;28;19914;-82
2022/12/25 13:31:28;;;;;;;;;;;8.10;99.90;;;;;;5016810;28;20369;-83
2022/12/25 13:33:58;;;;;;;;;;;8.10;99.90;;;;;;5047843;28;19918;-82
2022/12/25 13:36:25;;;;;;;;;;;8.10;99.90;;;;;;5016788;28;19975;-82
2022/12/25 13:38:52;;;;;;;;;;;8.10;99.90;;;;;;5016458;28;19913;-82
2022/12/25 13:44:23;;;;;;;;;;;8.20;99.90;;;;;;5016654;28;20342;-83
2022/12/25 13:46:49;;;;;;;;;;;8.20;99.90;;;;;;5015886;28;19910;-82
2022/12/25 13:49:16;;;;;;;;;;;8.20;99.90;;;;;;5016558;28;19917;-82
2022/12/25 13:51:42;;;;;;;;;;;8.20;99.90;;;;;;5017823;28;19959;-82
2022/12/25 13:54:09;;;;;;;;;;;8.20;99.90;;;;;;5018629;28;19914;-83
2022/12/25 13:56:35;;;;;;;;;;;8.20;99.90;;;;;;5049531;28;19921;-82
2022/12/25 13:59:01;;;;;;;;;;;8.20;99.90;;;;;;5017798;28;19914;-83
2022/12/25 14:01:27;;;;;;;;;;;8.20;99.90;;;;;;5017951;28;19921;-82
2022/12/25 14:03:52;;;;;;;;;;;8.20;99.90;;;;;;5016158;28;19913;-82
2022/12/25 14:06:24;;;;;;;;;;;8.10;99.90;;;;;;5015535;28;19920;-82
2022/12/25 14:08:51;;;;;;;;;;;8.10;99.90;;;;;;5016355;28;19917;-82
2022/12/25 14:11:19;;;;;;;;;;;8.10;99.90;;;;;;5017338;28;19921;-83
2022/12/25 14:13:45;;;;;;;;;;;8.10;99.90;;;;;;5016941;28;19913;-82
2022/12/25 14:16:14;;;;;;;;;;;8.00;99.90;;;;;;5048175;28;20274;-82
2022/12/25 14:18:48;;;;;;;;;;;8.00;99.90;;;;;;5016428;28;19952;-82
2022/12/25 14:21:26;;;;;;;;;;;8.00;99.90;;;;;;5017994;28;19983;-82
2022/12/25 14:23:51;;;;;;;;;;;7.90;99.90;;;;;;5016068;28;19914;-82
2022/12/25 14:26:20;;;;;;;;;;;7.90;99.90;;;;;;5016843;28;19909;-82
2022/12/25 14:29:07;;;;;;;;;;;7.80;99.90;;;;;;5017563;28;19967;-83
2022/12/25 14:31:33;;;;;;;;;;;7.80;99.90;;;;;;5016044;28;19920;-82
2022/12/25 14:34:00;;;;;;;;;;;7.70;99.90;;;;;;4999651;28;19918;-82
2022/12/25 14:36:26;;;;;;;;;;;7.60;99.90;;;;;;5016153;28;19948;-82
2022/12/25 14:38:59;;;;;;;;;;;7.60;99.90;;;;;;5016982;28;20004;-82
2022/12/25 14:41:36;;;;;;;;;;;7.50;99.90;;;;;;5016840;28;20407;-83
2022/12/25 14:44:22;;;;;;;;;;;7.50;99.90;;;;;;5016981;28;20004;-82
2022/12/25 14:46:47;;;;;;;;;;;7.50;99.90;;;;;;5012840;28;19916;-83
2022/12/25 14:49:22;;;;;;;;;;;7.40;99.90;;;;;;5016783;28;19914;-82
2022/12/25 14:51:48;;;;;;;;;;;7.30;99.90;;;;;;5013368;28;19965;-82
2022/12/25 14:54:16;;;;;;;;;;;7.30;99.90;;;;;;5014996;28;20011;-82
2022/12/25 14:56:45;;;;;;;;;;;7.20;99.90;;;;;;5016281;28;19909;-82
2022/12/25 14:59:18;;;;;;;;;;;7.10;99.90;;;;;;5016456;28;19916;-82
2022/12/25 15:01:48;;;;;;;;;;;7.00;99.90;;;;;;5014316;28;19909;-82
2022/12/25 15:04:14;;;;;;;;;;;7.00;99.90;;;;;;5014078;28;19916;-83
2022/12/25 15:07:05;;;;;;;;;;;6.90;99.90;;;;;;5014656;28;19971;-82
2022/12/25 15:09:31;;;;;;;;;;;6.80;99.90;;;;;;5013671;28;19913;-82
2022/12/25 15:11:57;;;;;;;;;;;6.70;99.90;;;;;;5011216;28;19961;-82
2022/12/25 15:14:23;;;;;;;;;;;6.60;99.90;;;;;;4995123;28;19917;-82
2022/12/25 15:16:56;;;;;;;;;;;6.50;99.90;;;;;;5005799;28;19914;-82
2022/12/25 15:19:28;;;;;;;;;;;6.50;99.90;;;;;;5011570;28;20448;-82
2022/12/25 15:21:54;;;;;;;;;;;6.40;99.90;;;;;;5016675;28;19913;-82
2022/12/25 15:24:19;;;;;;;;;;;6.30;99.90;;;;;;5018002;28;19913;-82
2022/12/25 15:26:45;;;;;;;;;;;6.20;99.90;;;;;;5015412;28;20012;-82
2022/12/25 15:29:11;;;;;;;;;;;6.20;99.90;;;;;;5043976;28;19914;-82
2022/12/25 15:31:37;;;;;;;;;;;6.10;99.90;;;;;;5012913;28;19960;-81
2022/12/25 15:34:04;;;;;;;;;;;6.00;99.90;;;;;;5012901;28;19949;-82
2022/12/25 15:36:30;;;;;;;;;;;6.00;99.90;;;;;;5011408;28;19964;-82
2022/12/25 15:38:56;;;;;;;;;;;5.90;99.90;;;;;;5010449;28;19921;-83
2022/12/25 15:42:17;;;;;;;;;;;5.90;99.90;;;;;;5014961;28;19910;-82
2022/12/25 15:44:18;;;;;;;;;;;5.90;99.90;;;;;;5014569;28;19915;-82
2022/12/25 15:46:44;;;;;;;;;;;5.80;99.90;;;;;;5012643;28;20000;-82
2022/12/25 15:49:10;;;;;;;;;;;5.70;99.90;;;;;;5014188;28;19909;-82
2022/12/25 15:51:36;;;;;;;;;;;5.60;99.90;;;;;;5013017;28;19917;-82
2022/12/25 15:54:02;;;;;;;;;;;5.60;99.90;;;;;;5014815;28;19967;-82
2022/12/25 15:56:28;;;;;;;;;;;5.50;99.90;;;;;;5021182;28;19918;-82
2022/12/25 15:58:53;;;;;;;;;;;5.40;99.90;;;;;;5015163;28;20392;-82
2022/12/25 16:01:19;;;;;;;;;;;5.30;99.90;;;;;;5014716;28;20004;-82
2022/12/25 16:03:45;;;;;;;;;;;5.20;99.90;;;;;;5014404;28;20011;-82
2022/12/25 16:06:12;;;;;;;;;;;5.20;99.90;;;;;;5022551;28;19949;-82
2022/12/25 16:08:37;;;;;;;;;;;5.10;99.90;;;;;;5014672;28;19913;-82
2022/12/25 16:11:03;;;;;;;;;;;5.10;99.90;;;;;;5014974;28;19944;-82
2022/12/25 16:13:28;;;;;;;;;;;5.10;99.90;;;;;;5015214;28;19914;-82
2022/12/25 16:15:54;;;;;;;;;;;5.00;99.90;;;;;;5013583;28;20012;-82
2022/12/25 16:18:20;;;;;;;;;;;4.90;99.90;;;;;;5010177;28;19918;-82